sensor_id;sensor_type;location;lat;lon;timestamp;P1;durP1;ratioP1;P2;durP2;ratioP2
71637;SDS011;59485;43.542;-5.676;2022-11-09T00:01:41;27.97;;;9.90;;
71637;SDS011;59485;43.542;-5.676;2022-11-09T00:04:07;20.73;;;8.80;;
71637;SDS011;59485;43.542;-5.676;2022-11-09T00:06:33;25.05;;;9.77;;
71637;SDS011;59485;43.542;-5.676;2022-11-09T00:09:00;28.02;;;9.15;;
71637;SDS011;59485;43.542;-5.676;2022-11-09T00:11:26;27.67;;;9.88;;
71637;SDS011;59485;43.542;-5.676;2022-11-09T00:13:52;32.80;;;9.63;;
71637;SDS011;59485;43.542;-5.676;2022-11-09T00:16:18;19.33;;;7.70;;
71637;SDS011;59485;43.542;-5.676;2022-11-09T00:18:48;21.70;;;8.00;;
71637;SDS011;59485;43.542;-5.676;2022-11-09T00:21:18;22.45;;;8.82;;
71637;SDS011;59485;43.542;-5.676;2022-11-09T00:23:45;30.50;;;9.63;;
71637;SDS011;59485;43.542;-5.676;2022-11-09T00:26:12;23.48;;;9.32;;
71637;SDS011;59485;43.542;-5.676;2022-11-09T00:28:39;22.80;;;8.23;;
71637;SDS011;59485;43.542;-5.676;2022-11-09T00:31:06;22.37;;;8.50;;
71637;SDS011;59485;43.542;-5.676;2022-11-09T00:33:34;19.35;;;8.23;;
71637;SDS011;59485;43.542;-5.676;2022-11-09T00:36:04;25.77;;;8.53;;
71637;SDS011;59485;43.542;-5.676;2022-11-09T00:38:33;22.80;;;8.50;;
71637;SDS011;59485;43.542;-5.676;2022-11-09T00:41:01;25.50;;;8.73;;
71637;SDS011;59485;43.542;-5.676;2022-11-09T00:43:30;29.30;;;8.70;;
71637;SDS011;59485;43.542;-5.676;2022-11-09T00:45:55;28.30;;;6.80;;
71637;SDS011;59485;43.542;-5.676;2022-11-09T00:48:21;35.05;;;8.50;;
71637;SDS011;59485;43.542;-5.676;2022-11-09T00:50:50;24.20;;;5.53;;
71637;SDS011;59485;43.542;-5.676;2022-11-09T00:53:16;21.48;;;5.32;;
71637;SDS011;59485;43.542;-5.676;2022-11-09T00:55:48;22.75;;;3.63;;
71637;SDS011;59485;43.542;-5.676;2022-11-09T00:58:19;16.08;;;2.15;;
71637;SDS011;59485;43.542;-5.676;2022-11-09T01:00:44;17.73;;;1.87;;
71637;SDS011;59485;43.542;-5.676;2022-11-09T01:03:10;15.20;;;2.37;;
71637;SDS011;59485;43.542;-5.676;2022-11-09T01:05:36;18.97;;;2.43;;
71637;SDS011;59485;43.542;-5.676;2022-11-09T01:08:03;16.57;;;2.47;;
71637;SDS011;59485;43.542;-5.676;2022-11-09T01:10:30;16.90;;;2.78;;
71637;SDS011;59485;43.542;-5.676;2022-11-09T01:12:55;20.95;;;3.15;;
71637;SDS011;59485;43.542;-5.676;2022-11-09T01:15:21;21.90;;;3.00;;
71637;SDS011;59485;43.542;-5.676;2022-11-09T01:17:47;23.87;;;3.87;;
71637;SDS011;59485;43.542;-5.676;2022-11-09T01:20:13;25.20;;;3.33;;
71637;SDS011;59485;43.542;-5.676;2022-11-09T01:22:40;33.72;;;5.00;;
71637;SDS011;59485;43.542;-5.676;2022-11-09T01:25:06;22.48;;;3.83;;
71637;SDS011;59485;43.542;-5.676;2022-11-09T01:27:32;27.80;;;3.85;;
71637;SDS011;59485;43.542;-5.676;2022-11-09T01:29:58;27.73;;;4.20;;
71637;SDS011;59485;43.542;-5.676;2022-11-09T01:32:23;28.20;;;3.70;;
71637;SDS011;59485;43.542;-5.676;2022-11-09T01:34:49;32.17;;;3.60;;
71637;SDS011;59485;43.542;-5.676;2022-11-09T01:37:14;27.00;;;3.87;;
71637;SDS011;59485;43.542;-5.676;2022-11-09T01:39:40;22.92;;;4.25;;
71637;SDS011;59485;43.542;-5.676;2022-11-09T01:42:05;28.20;;;3.73;;
71637;SDS011;59485;43.542;-5.676;2022-11-09T01:44:31;26.37;;;3.93;;
71637;SDS011;59485;43.542;-5.676;2022-11-09T01:47:02;27.52;;;3.72;;
71637;SDS011;59485;43.542;-5.676;2022-11-09T01:54:34;24.90;;;3.77;;
71637;SDS011;59485;43.542;-5.676;2022-11-09T01:57:05;21.73;;;3.10;;
71637;SDS011;59485;43.542;-5.676;2022-11-09T01:59:42;23.25;;;3.78;;
71637;SDS011;59485;43.542;-5.676;2022-11-09T02:02:13;22.55;;;3.72;;
71637;SDS011;59485;43.542;-5.676;2022-11-09T02:04:41;19.40;;;3.40;;
71637;SDS011;59485;43.542;-5.676;2022-11-09T02:07:11;20.10;;;2.97;;
71637;SDS011;59485;43.542;-5.676;2022-11-09T02:09:48;21.02;;;4.15;;
71637;SDS011;59485;43.542;-5.676;2022-11-09T02:12:20;21.42;;;3.67;;
71637;SDS011;59485;43.542;-5.676;2022-11-09T02:14:47;23.70;;;4.27;;
71637;SDS011;59485;43.542;-5.676;2022-11-09T02:17:15;32.05;;;4.43;;
71637;SDS011;59485;43.542;-5.676;2022-11-09T02:19:41;23.48;;;3.78;;
71637;SDS011;59485;43.542;-5.676;2022-11-09T02:22:07;20.57;;;3.40;;
71637;SDS011;59485;43.542;-5.676;2022-11-09T02:24:32;23.33;;;4.47;;
71637;SDS011;59485;43.542;-5.676;2022-11-09T02:26:58;18.93;;;3.30;;
71637;SDS011;59485;43.542;-5.676;2022-11-09T02:29:25;15.80;;;3.30;;
71637;SDS011;59485;43.542;-5.676;2022-11-09T02:32:12;24.75;;;2.80;;
71637;SDS011;59485;43.542;-5.676;2022-11-09T02:34:42;20.90;;;3.38;;
71637;SDS011;59485;43.542;-5.676;2022-11-09T02:37:08;17.47;;;3.03;;
71637;SDS011;59485;43.542;-5.676;2022-11-09T02:39:34;16.90;;;3.45;;
71637;SDS011;59485;43.542;-5.676;2022-11-09T02:42:01;16.53;;;3.37;;
71637;SDS011;59485;43.542;-5.676;2022-11-09T02:44:29;26.65;;;4.15;;
71637;SDS011;59485;43.542;-5.676;2022-11-09T02:47:00;17.77;;;3.47;;
71637;SDS011;59485;43.542;-5.676;2022-11-09T02:49:26;15.70;;;2.97;;
71637;SDS011;59485;43.542;-5.676;2022-11-09T02:51:51;15.03;;;3.37;;
71637;SDS011;59485;43.542;-5.676;2022-11-09T02:54:17;14.65;;;3.03;;
71637;SDS011;59485;43.542;-5.676;2022-11-09T02:56:43;13.87;;;2.20;;
71637;SDS011;59485;43.542;-5.676;2022-11-09T02:59:08;15.52;;;3.28;;
71637;SDS011;59485;43.542;-5.676;2022-11-09T03:01:41;17.07;;;3.27;;
71637;SDS011;59485;43.542;-5.676;2022-11-09T03:04:07;20.52;;;2.80;;
71637;SDS011;59485;43.542;-5.676;2022-11-09T03:06:33;17.60;;;2.70;;
71637;SDS011;59485;43.542;-5.676;2022-11-09T03:08:59;18.20;;;3.00;;
71637;SDS011;59485;43.542;-5.676;2022-11-09T03:11:26;18.23;;;2.60;;
71637;SDS011;59485;43.542;-5.676;2022-11-09T03:16:23;16.58;;;2.85;;
71637;SDS011;59485;43.542;-5.676;2022-11-09T03:18:49;14.80;;;2.40;;
71637;SDS011;59485;43.542;-5.676;2022-11-09T03:21:16;18.30;;;1.75;;
71637;SDS011;59485;43.542;-5.676;2022-11-09T03:23:41;12.18;;;2.10;;
71637;SDS011;59485;43.542;-5.676;2022-11-09T03:26:07;8.93;;;0.97;;
71637;SDS011;59485;43.542;-5.676;2022-11-09T03:28:32;11.83;;;1.40;;
71637;SDS011;59485;43.542;-5.676;2022-11-09T03:30:58;13.95;;;4.10;;
71637;SDS011;59485;43.542;-5.676;2022-11-09T03:33:24;15.50;;;4.73;;
71637;SDS011;59485;43.542;-5.676;2022-11-09T03:35:53;18.35;;;4.43;;
71637;SDS011;59485;43.542;-5.676;2022-11-09T03:38:19;13.48;;;3.10;;
71637;SDS011;59485;43.542;-5.676;2022-11-09T03:40:44;15.20;;;3.77;;
71637;SDS011;59485;43.542;-5.676;2022-11-09T03:43:10;16.27;;;3.20;;
71637;SDS011;59485;43.542;-5.676;2022-11-09T03:45:35;15.30;;;3.65;;
71637;SDS011;59485;43.542;-5.676;2022-11-09T03:48:01;17.07;;;3.40;;
71637;SDS011;59485;43.542;-5.676;2022-11-09T03:50:28;13.50;;;2.80;;
71637;SDS011;59485;43.542;-5.676;2022-11-09T03:52:56;17.70;;;3.22;;
71637;SDS011;59485;43.542;-5.676;2022-11-09T03:55:25;11.07;;;2.90;;
71637;SDS011;59485;43.542;-5.676;2022-11-09T03:58:00;15.83;;;2.43;;
71637;SDS011;59485;43.542;-5.676;2022-11-09T04:00:26;13.18;;;2.85;;
71637;SDS011;59485;43.542;-5.676;2022-11-09T04:03:01;13.25;;;2.63;;
71637;SDS011;59485;43.542;-5.676;2022-11-09T04:05:27;10.95;;;2.58;;
71637;SDS011;59485;43.542;-5.676;2022-11-09T04:07:56;17.97;;;2.87;;
71637;SDS011;59485;43.542;-5.676;2022-11-09T04:10:22;13.23;;;2.38;;
71637;SDS011;59485;43.542;-5.676;2022-11-09T04:12:55;12.77;;;2.40;;
71637;SDS011;59485;43.542;-5.676;2022-11-09T04:15:33;15.00;;;3.00;;
71637;SDS011;59485;43.542;-5.676;2022-11-09T04:17:59;14.25;;;3.42;;
71637;SDS011;59485;43.542;-5.676;2022-11-09T04:20:26;15.03;;;3.33;;
71637;SDS011;59485;43.542;-5.676;2022-11-09T04:22:54;16.20;;;2.55;;
71637;SDS011;59485;43.542;-5.676;2022-11-09T04:25:28;12.52;;;2.40;;
71637;SDS011;59485;43.542;-5.676;2022-11-09T04:27:57;13.55;;;2.67;;
71637;SDS011;59485;43.542;-5.676;2022-11-09T04:30:24;15.02;;;2.50;;
71637;SDS011;59485;43.542;-5.676;2022-11-09T04:32:57;10.47;;;2.87;;
71637;SDS011;59485;43.542;-5.676;2022-11-09T04:35:24;16.90;;;3.20;;
71637;SDS011;59485;43.542;-5.676;2022-11-09T04:37:54;10.57;;;2.47;;
71637;SDS011;59485;43.542;-5.676;2022-11-09T04:40:20;13.02;;;2.10;;
71637;SDS011;59485;43.542;-5.676;2022-11-09T04:42:47;14.82;;;2.95;;
71637;SDS011;59485;43.542;-5.676;2022-11-09T04:45:12;9.20;;;2.20;;
71637;SDS011;59485;43.542;-5.676;2022-11-09T04:47:38;12.80;;;2.30;;
71637;SDS011;59485;43.542;-5.676;2022-11-09T04:52:37;8.65;;;2.08;;
71637;SDS011;59485;43.542;-5.676;2022-11-09T04:55:03;9.10;;;2.17;;
71637;SDS011;59485;43.542;-5.676;2022-11-09T04:57:29;7.65;;;2.13;;
71637;SDS011;59485;43.542;-5.676;2022-11-09T05:00:04;13.33;;;2.20;;
71637;SDS011;59485;43.542;-5.676;2022-11-09T05:02:31;12.35;;;2.42;;
71637;SDS011;59485;43.542;-5.676;2022-11-09T05:04:56;11.60;;;2.30;;
71637;SDS011;59485;43.542;-5.676;2022-11-09T05:07:22;14.37;;;3.70;;
71637;SDS011;59485;43.542;-5.676;2022-11-09T05:09:47;12.20;;;2.73;;
71637;SDS011;59485;43.542;-5.676;2022-11-09T05:12:13;14.38;;;2.90;;
71637;SDS011;59485;43.542;-5.676;2022-11-09T05:14:38;11.47;;;2.40;;
71637;SDS011;59485;43.542;-5.676;2022-11-09T05:17:04;9.73;;;2.60;;
71637;SDS011;59485;43.542;-5.676;2022-11-09T05:19:30;10.73;;;2.65;;
71637;SDS011;59485;43.542;-5.676;2022-11-09T05:21:56;11.70;;;2.30;;
71637;SDS011;59485;43.542;-5.676;2022-11-09T05:24:41;9.07;;;2.13;;
71637;SDS011;59485;43.542;-5.676;2022-11-09T05:27:07;10.17;;;2.63;;
71637;SDS011;59485;43.542;-5.676;2022-11-09T05:29:32;7.97;;;2.73;;
71637;SDS011;59485;43.542;-5.676;2022-11-09T05:31:58;11.53;;;2.80;;
71637;SDS011;59485;43.542;-5.676;2022-11-09T05:34:29;7.40;;;1.93;;
71637;SDS011;59485;43.542;-5.676;2022-11-09T05:36:54;8.02;;;2.30;;
71637;SDS011;59485;43.542;-5.676;2022-11-09T05:39:20;9.30;;;2.17;;
71637;SDS011;59485;43.542;-5.676;2022-11-09T05:41:45;10.47;;;2.70;;
71637;SDS011;59485;43.542;-5.676;2022-11-09T05:44:11;10.17;;;2.50;;
71637;SDS011;59485;43.542;-5.676;2022-11-09T05:46:36;11.37;;;2.67;;
71637;SDS011;59485;43.542;-5.676;2022-11-09T05:49:02;11.23;;;3.30;;
71637;SDS011;59485;43.542;-5.676;2022-11-09T05:51:36;10.77;;;2.40;;
71637;SDS011;59485;43.542;-5.676;2022-11-09T05:54:02;10.67;;;2.27;;
71637;SDS011;59485;43.542;-5.676;2022-11-09T05:56:40;9.75;;;2.70;;
71637;SDS011;59485;43.542;-5.676;2022-11-09T05:59:06;10.43;;;2.90;;
71637;SDS011;59485;43.542;-5.676;2022-11-09T06:01:32;8.93;;;2.33;;
71637;SDS011;59485;43.542;-5.676;2022-11-09T06:03:58;9.60;;;2.55;;
71637;SDS011;59485;43.542;-5.676;2022-11-09T06:06:23;10.33;;;2.90;;
71637;SDS011;59485;43.542;-5.676;2022-11-09T06:08:49;11.07;;;3.20;;
71637;SDS011;59485;43.542;-5.676;2022-11-09T06:11:17;8.48;;;2.70;;
71637;SDS011;59485;43.542;-5.676;2022-11-09T06:13:43;14.32;;;2.70;;
71637;SDS011;59485;43.542;-5.676;2022-11-09T06:16:08;12.17;;;3.53;;
71637;SDS011;59485;43.542;-5.676;2022-11-09T06:18:34;11.20;;;3.42;;
71637;SDS011;59485;43.542;-5.676;2022-11-09T06:21:01;12.05;;;3.72;;
71637;SDS011;59485;43.542;-5.676;2022-11-09T06:23:28;11.60;;;3.13;;
71637;SDS011;59485;43.542;-5.676;2022-11-09T06:25:57;8.52;;;2.70;;
71637;SDS011;59485;43.542;-5.676;2022-11-09T06:28:24;12.48;;;3.47;;
71637;SDS011;59485;43.542;-5.676;2022-11-09T06:30:51;11.63;;;3.15;;
71637;SDS011;59485;43.542;-5.676;2022-11-09T06:33:16;9.60;;;2.83;;
71637;SDS011;59485;43.542;-5.676;2022-11-09T06:35:42;9.43;;;2.92;;
71637;SDS011;59485;43.542;-5.676;2022-11-09T06:38:08;9.30;;;3.40;;
71637;SDS011;59485;43.542;-5.676;2022-11-09T06:40:35;9.82;;;3.42;;
71637;SDS011;59485;43.542;-5.676;2022-11-09T06:43:01;15.07;;;3.87;;
71637;SDS011;59485;43.542;-5.676;2022-11-09T06:45:28;12.70;;;4.43;;
71637;SDS011;59485;43.542;-5.676;2022-11-09T06:47:57;10.82;;;4.20;;
71637;SDS011;59485;43.542;-5.676;2022-11-09T06:50:25;12.57;;;5.05;;
71637;SDS011;59485;43.542;-5.676;2022-11-09T06:52:59;13.13;;;5.05;;
71637;SDS011;59485;43.542;-5.676;2022-11-09T06:55:26;10.20;;;4.43;;
71637;SDS011;59485;43.542;-5.676;2022-11-09T06:57:53;14.73;;;4.20;;
71637;SDS011;59485;43.542;-5.676;2022-11-09T07:00:18;13.25;;;4.63;;
71637;SDS011;59485;43.542;-5.676;2022-11-09T07:02:44;13.63;;;5.03;;
71637;SDS011;59485;43.542;-5.676;2022-11-09T07:05:10;14.45;;;4.90;;
71637;SDS011;59485;43.542;-5.676;2022-11-09T07:07:35;10.67;;;4.07;;
71637;SDS011;59485;43.542;-5.676;2022-11-09T07:10:01;10.38;;;4.22;;
71637;SDS011;59485;43.542;-5.676;2022-11-09T07:12:27;11.63;;;4.37;;
71637;SDS011;59485;43.542;-5.676;2022-11-09T07:14:53;13.82;;;5.18;;
71637;SDS011;59485;43.542;-5.676;2022-11-09T07:17:18;13.97;;;5.87;;
71637;SDS011;59485;43.542;-5.676;2022-11-09T07:19:44;12.80;;;5.83;;
71637;SDS011;59485;43.542;-5.676;2022-11-09T07:22:10;14.65;;;5.82;;
71637;SDS011;59485;43.542;-5.676;2022-11-09T07:24:35;15.47;;;5.87;;
71637;SDS011;59485;43.542;-5.676;2022-11-09T07:27:01;14.30;;;5.07;;
71637;SDS011;59485;43.542;-5.676;2022-11-09T07:29:26;12.27;;;4.57;;
71637;SDS011;59485;43.542;-5.676;2022-11-09T07:31:52;10.03;;;4.30;;
71637;SDS011;59485;43.542;-5.676;2022-11-09T07:34:17;16.57;;;5.53;;
71637;SDS011;59485;43.542;-5.676;2022-11-09T07:36:42;13.10;;;4.60;;
71637;SDS011;59485;43.542;-5.676;2022-11-09T07:39:08;14.70;;;5.80;;
71637;SDS011;59485;43.542;-5.676;2022-11-09T07:41:34;12.70;;;5.63;;
71637;SDS011;59485;43.542;-5.676;2022-11-09T07:43:59;13.40;;;5.80;;
71637;SDS011;59485;43.542;-5.676;2022-11-09T07:46:25;10.07;;;3.80;;
71637;SDS011;59485;43.542;-5.676;2022-11-09T07:48:50;10.83;;;4.23;;
71637;SDS011;59485;43.542;-5.676;2022-11-09T07:51:15;11.70;;;4.00;;
71637;SDS011;59485;43.542;-5.676;2022-11-09T07:53:41;15.77;;;7.03;;
71637;SDS011;59485;43.542;-5.676;2022-11-09T07:56:07;20.80;;;10.43;;
71637;SDS011;59485;43.542;-5.676;2022-11-09T07:58:32;28.95;;;14.20;;
71637;SDS011;59485;43.542;-5.676;2022-11-09T08:01:00;25.48;;;12.85;;
71637;SDS011;59485;43.542;-5.676;2022-11-09T08:03:25;22.73;;;11.93;;
71637;SDS011;59485;43.542;-5.676;2022-11-09T08:05:51;20.58;;;12.23;;
71637;SDS011;59485;43.542;-5.676;2022-11-09T08:08:16;14.37;;;8.17;;
71637;SDS011;59485;43.542;-5.676;2022-11-09T08:10:43;15.13;;;8.03;;
71637;SDS011;59485;43.542;-5.676;2022-11-09T08:13:14;19.50;;;10.00;;
71637;SDS011;59485;43.542;-5.676;2022-11-09T08:15:40;37.70;;;20.57;;
71637;SDS011;59485;43.542;-5.676;2022-11-09T08:18:09;37.92;;;19.85;;
71637;SDS011;59485;43.542;-5.676;2022-11-09T08:20:36;43.78;;;23.30;;
71637;SDS011;59485;43.542;-5.676;2022-11-09T08:23:02;56.90;;;29.40;;
71637;SDS011;59485;43.542;-5.676;2022-11-09T08:25:32;51.75;;;26.90;;
71637;SDS011;59485;43.542;-5.676;2022-11-09T08:27:58;42.55;;;22.15;;
71637;SDS011;59485;43.542;-5.676;2022-11-09T08:30:24;45.90;;;23.87;;
71637;SDS011;59485;43.542;-5.676;2022-11-09T08:32:49;40.33;;;23.23;;
71637;SDS011;59485;43.542;-5.676;2022-11-09T08:35:17;39.72;;;19.17;;
71637;SDS011;59485;43.542;-5.676;2022-11-09T08:37:47;42.00;;;21.03;;
71637;SDS011;59485;43.542;-5.676;2022-11-09T08:40:15;43.78;;;22.02;;
71637;SDS011;59485;43.542;-5.676;2022-11-09T08:42:43;39.72;;;20.05;;
71637;SDS011;59485;43.542;-5.676;2022-11-09T08:45:12;32.83;;;17.40;;
71637;SDS011;59485;43.542;-5.676;2022-11-09T08:47:38;30.20;;;16.42;;
71637;SDS011;59485;43.542;-5.676;2022-11-09T08:50:05;29.07;;;14.47;;
71637;SDS011;59485;43.542;-5.676;2022-11-09T08:52:32;31.17;;;13.93;;
71637;SDS011;59485;43.542;-5.676;2022-11-09T08:54:57;31.55;;;14.85;;
71637;SDS011;59485;43.542;-5.676;2022-11-09T08:57:23;27.23;;;11.75;;
71637;SDS011;59485;43.542;-5.676;2022-11-09T08:59:49;21.03;;;9.83;;
71637;SDS011;59485;43.542;-5.676;2022-11-09T09:02:15;22.73;;;10.93;;
71637;SDS011;59485;43.542;-5.676;2022-11-09T09:04:40;23.47;;;10.87;;
71637;SDS011;59485;43.542;-5.676;2022-11-09T09:07:06;21.30;;;9.63;;
71637;SDS011;59485;43.542;-5.676;2022-11-09T09:09:32;22.70;;;10.43;;
71637;SDS011;59485;43.542;-5.676;2022-11-09T09:11:59;20.92;;;9.15;;
71637;SDS011;59485;43.542;-5.676;2022-11-09T09:14:24;24.50;;;10.37;;
71637;SDS011;59485;43.542;-5.676;2022-11-09T09:16:50;21.33;;;8.48;;
71637;SDS011;59485;43.542;-5.676;2022-11-09T09:19:16;19.50;;;7.93;;
71637;SDS011;59485;43.542;-5.676;2022-11-09T09:21:41;17.13;;;7.63;;
71637;SDS011;59485;43.542;-5.676;2022-11-09T09:24:07;17.10;;;6.50;;
71637;SDS011;59485;43.542;-5.676;2022-11-09T09:26:32;15.20;;;6.80;;
71637;SDS011;59485;43.542;-5.676;2022-11-09T09:28:58;18.13;;;6.60;;
71637;SDS011;59485;43.542;-5.676;2022-11-09T09:31:23;19.63;;;7.70;;
71637;SDS011;59485;43.542;-5.676;2022-11-09T09:33:52;21.50;;;8.35;;
71637;SDS011;59485;43.542;-5.676;2022-11-09T09:36:18;26.07;;;9.93;;
71637;SDS011;59485;43.542;-5.676;2022-11-09T09:38:45;17.60;;;7.63;;
71637;SDS011;59485;43.542;-5.676;2022-11-09T09:41:20;17.42;;;6.25;;
71637;SDS011;59485;43.542;-5.676;2022-11-09T09:43:48;16.98;;;6.25;;
71637;SDS011;59485;43.542;-5.676;2022-11-09T09:46:29;14.80;;;5.90;;
71637;SDS011;59485;43.542;-5.676;2022-11-09T09:49:24;12.05;;;2.88;;
71637;SDS011;59485;43.542;-5.676;2022-11-09T09:51:52;12.30;;;2.90;;
71637;SDS011;59485;43.542;-5.676;2022-11-09T09:54:39;7.53;;;2.08;;
71637;SDS011;59485;43.542;-5.676;2022-11-09T09:57:12;7.13;;;1.75;;
71637;SDS011;59485;43.542;-5.676;2022-11-09T09:59:44;4.33;;;0.73;;
71637;SDS011;59485;43.542;-5.676;2022-11-09T10:04:49;6.32;;;1.50;;
71637;SDS011;59485;43.542;-5.676;2022-11-09T10:18:13;5.28;;;1.17;;
71637;SDS011;59485;43.542;-5.676;2022-11-09T10:29:14;5.03;;;0.82;;
71637;SDS011;59485;43.542;-5.676;2022-11-09T10:31:47;4.07;;;1.03;;
71637;SDS011;59485;43.542;-5.676;2022-11-09T10:34:38;5.88;;;0.95;;
71637;SDS011;59485;43.542;-5.676;2022-11-09T10:37:20;5.07;;;1.42;;
71637;SDS011;59485;43.542;-5.676;2022-11-09T10:39:57;4.47;;;1.30;;
71637;SDS011;59485;43.542;-5.676;2022-11-09T10:42:24;7.35;;;1.90;;
71637;SDS011;59485;43.542;-5.676;2022-11-09T10:44:50;6.43;;;1.83;;
71637;SDS011;59485;43.542;-5.676;2022-11-09T10:47:15;6.10;;;2.07;;
71637;SDS011;59485;43.542;-5.676;2022-11-09T10:49:41;5.35;;;1.58;;
71637;SDS011;59485;43.542;-5.676;2022-11-09T10:55:20;5.22;;;1.45;;
71637;SDS011;59485;43.542;-5.676;2022-11-09T10:57:51;7.93;;;1.42;;
71637;SDS011;59485;43.542;-5.676;2022-11-09T11:03:36;8.13;;;1.75;;
71637;SDS011;59485;43.542;-5.676;2022-11-09T11:06:07;4.78;;;1.40;;
71637;SDS011;59485;43.542;-5.676;2022-11-09T11:14:08;5.90;;;1.33;;
71637;SDS011;59485;43.542;-5.676;2022-11-09T11:16:34;7.63;;;1.08;;
71637;SDS011;59485;43.542;-5.676;2022-11-09T11:19:02;8.67;;;1.70;;
71637;SDS011;59485;43.542;-5.676;2022-11-09T11:21:29;4.57;;;1.30;;
71637;SDS011;59485;43.542;-5.676;2022-11-09T11:29:40;6.45;;;1.48;;
71637;SDS011;59485;43.542;-5.676;2022-11-09T11:32:13;4.67;;;1.50;;
71637;SDS011;59485;43.542;-5.676;2022-11-09T11:34:42;5.40;;;1.30;;
71637;SDS011;59485;43.542;-5.676;2022-11-09T11:40:00;6.67;;;1.33;;
71637;SDS011;59485;43.542;-5.676;2022-11-09T11:45:15;3.85;;;1.00;;
71637;SDS011;59485;43.542;-5.676;2022-11-09T12:13:17;5.10;;;1.25;;
71637;SDS011;59485;43.542;-5.676;2022-11-09T12:21:52;6.73;;;1.37;;
71637;SDS011;59485;43.542;-5.676;2022-11-09T12:30:27;3.92;;;1.35;;
71637;SDS011;59485;43.542;-5.676;2022-11-09T12:33:19;7.43;;;1.48;;
71637;SDS011;59485;43.542;-5.676;2022-11-09T12:35:52;7.67;;;1.73;;
71637;SDS011;59485;43.542;-5.676;2022-11-09T12:38:25;6.15;;;1.88;;
71637;SDS011;59485;43.542;-5.676;2022-11-09T12:41:09;11.30;;;2.47;;
71637;SDS011;59485;43.542;-5.676;2022-11-09T12:44:23;12.10;;;2.38;;
71637;SDS011;59485;43.542;-5.676;2022-11-09T12:46:35;15.40;;;3.35;;
71637;SDS011;59485;43.542;-5.676;2022-11-09T12:49:04;9.93;;;2.33;;
71637;SDS011;59485;43.542;-5.676;2022-11-09T12:51:30;13.43;;;3.58;;
71637;SDS011;59485;43.542;-5.676;2022-11-09T12:53:58;8.52;;;1.80;;
71637;SDS011;59485;43.542;-5.676;2022-11-09T12:56:33;9.70;;;1.92;;
71637;SDS011;59485;43.542;-5.676;2022-11-09T13:02:18;9.40;;;2.08;;
71637;SDS011;59485;43.542;-5.676;2022-11-09T13:05:05;13.27;;;2.03;;
71637;SDS011;59485;43.542;-5.676;2022-11-09T13:07:45;12.00;;;2.08;;
71637;SDS011;59485;43.542;-5.676;2022-11-09T13:10:32;12.48;;;2.50;;
71637;SDS011;59485;43.542;-5.676;2022-11-09T13:13:13;7.63;;;1.53;;
71637;SDS011;59485;43.542;-5.676;2022-11-09T13:20:55;16.30;;;3.80;;
71637;SDS011;59485;43.542;-5.676;2022-11-09T13:23:41;12.00;;;2.70;;
71637;SDS011;59485;43.542;-5.676;2022-11-09T13:26:19;13.98;;;2.83;;
71637;SDS011;59485;43.542;-5.676;2022-11-09T13:29:07;14.30;;;2.83;;
71637;SDS011;59485;43.542;-5.676;2022-11-09T13:35:10;13.80;;;2.67;;
71637;SDS011;59485;43.542;-5.676;2022-11-09T13:37:36;11.95;;;2.28;;
71637;SDS011;59485;43.542;-5.676;2022-11-09T13:56:17;14.27;;;4.22;;
71637;SDS011;59485;43.542;-5.676;2022-11-09T13:58:47;16.67;;;4.43;;
71637;SDS011;59485;43.542;-5.676;2022-11-09T14:01:28;17.98;;;6.47;;
71637;SDS011;59485;43.542;-5.676;2022-11-09T14:03:58;13.88;;;4.22;;
71637;SDS011;59485;43.542;-5.676;2022-11-09T14:06:27;14.35;;;4.32;;
71637;SDS011;59485;43.542;-5.676;2022-11-09T14:08:56;21.48;;;7.28;;
71637;SDS011;59485;43.542;-5.676;2022-11-09T14:11:26;17.63;;;6.50;;
71637;SDS011;59485;43.542;-5.676;2022-11-09T14:22:12;12.18;;;2.28;;
71637;SDS011;59485;43.542;-5.676;2022-11-09T14:24:40;12.47;;;2.40;;
71637;SDS011;59485;43.542;-5.676;2022-11-09T14:29:46;14.00;;;2.55;;
71637;SDS011;59485;43.542;-5.676;2022-11-09T14:32:28;9.82;;;2.15;;
71637;SDS011;59485;43.542;-5.676;2022-11-09T14:37:59;8.23;;;1.80;;
71637;SDS011;59485;43.542;-5.676;2022-11-09T14:40:37;8.65;;;1.83;;
71637;SDS011;59485;43.542;-5.676;2022-11-09T14:45:49;11.80;;;1.77;;
71637;SDS011;59485;43.542;-5.676;2022-11-09T14:48:21;10.35;;;2.20;;
71637;SDS011;59485;43.542;-5.676;2022-11-09T14:50:47;9.13;;;2.20;;
71637;SDS011;59485;43.542;-5.676;2022-11-09T14:53:16;11.23;;;1.77;;
71637;SDS011;59485;43.542;-5.676;2022-11-09T14:55:47;10.15;;;1.80;;
71637;SDS011;59485;43.542;-5.676;2022-11-09T14:58:14;9.85;;;1.75;;
71637;SDS011;59485;43.542;-5.676;2022-11-09T15:00:40;11.50;;;3.20;;
71637;SDS011;59485;43.542;-5.676;2022-11-09T15:06:01;15.45;;;2.60;;
71637;SDS011;59485;43.542;-5.676;2022-11-09T15:08:29;10.75;;;1.90;;
71637;SDS011;59485;43.542;-5.676;2022-11-09T15:11:07;11.40;;;3.92;;
71637;SDS011;59485;43.542;-5.676;2022-11-09T15:13:36;13.77;;;4.87;;
71637;SDS011;59485;43.542;-5.676;2022-11-09T15:16:04;12.75;;;4.53;;
71637;SDS011;59485;43.542;-5.676;2022-11-09T15:18:34;10.32;;;2.60;;
71637;SDS011;59485;43.542;-5.676;2022-11-09T15:26:36;10.93;;;4.43;;
71637;SDS011;59485;43.542;-5.676;2022-11-09T15:29:26;11.88;;;2.70;;
71637;SDS011;59485;43.542;-5.676;2022-11-09T15:34:39;12.53;;;2.10;;
71637;SDS011;59485;43.542;-5.676;2022-11-09T15:39:54;8.30;;;2.30;;
71637;SDS011;59485;43.542;-5.676;2022-11-09T15:42:21;10.45;;;2.53;;
71637;SDS011;59485;43.542;-5.676;2022-11-09T15:44:54;10.27;;;2.10;;
71637;SDS011;59485;43.542;-5.676;2022-11-09T15:49:58;8.30;;;2.33;;
71637;SDS011;59485;43.542;-5.676;2022-11-09T15:52:26;15.63;;;2.78;;
71637;SDS011;59485;43.542;-5.676;2022-11-09T15:54:52;20.95;;;4.78;;
71637;SDS011;59485;43.542;-5.676;2022-11-09T15:57:18;16.37;;;4.10;;
71637;SDS011;59485;43.542;-5.676;2022-11-09T15:59:46;18.00;;;4.10;;
71637;SDS011;59485;43.542;-5.676;2022-11-09T16:02:12;15.60;;;3.58;;
71637;SDS011;59485;43.542;-5.676;2022-11-09T16:04:38;9.38;;;2.75;;
71637;SDS011;59485;43.542;-5.676;2022-11-09T16:07:05;14.43;;;2.43;;
71637;SDS011;59485;43.542;-5.676;2022-11-09T16:09:31;12.15;;;2.63;;
71637;SDS011;59485;43.542;-5.676;2022-11-09T16:11:57;12.52;;;3.05;;
71637;SDS011;59485;43.542;-5.676;2022-11-09T16:14:23;10.90;;;3.17;;
71637;SDS011;59485;43.542;-5.676;2022-11-09T16:16:48;16.65;;;3.42;;
71637;SDS011;59485;43.542;-5.676;2022-11-09T16:19:14;19.07;;;3.90;;
71637;SDS011;59485;43.542;-5.676;2022-11-09T16:21:40;12.80;;;4.70;;
71637;SDS011;59485;43.542;-5.676;2022-11-09T16:24:06;12.75;;;2.53;;
71637;SDS011;59485;43.542;-5.676;2022-11-09T16:26:32;16.00;;;3.70;;
71637;SDS011;59485;43.542;-5.676;2022-11-09T16:28:58;13.43;;;3.20;;
71637;SDS011;59485;43.542;-5.676;2022-11-09T16:31:24;14.35;;;2.90;;
71637;SDS011;59485;43.542;-5.676;2022-11-09T16:33:49;14.63;;;4.53;;
71637;SDS011;59485;43.542;-5.676;2022-11-09T16:36:16;18.77;;;4.87;;
71637;SDS011;59485;43.542;-5.676;2022-11-09T16:38:45;18.25;;;4.68;;
71637;SDS011;59485;43.542;-5.676;2022-11-09T16:41:13;18.45;;;5.20;;
71637;SDS011;59485;43.542;-5.676;2022-11-09T16:43:40;15.73;;;4.63;;
71637;SDS011;59485;43.542;-5.676;2022-11-09T16:46:08;15.63;;;5.40;;
71637;SDS011;59485;43.542;-5.676;2022-11-09T16:48:38;17.93;;;5.33;;
71637;SDS011;59485;43.542;-5.676;2022-11-09T16:51:04;16.52;;;5.28;;
71637;SDS011;59485;43.542;-5.676;2022-11-09T16:53:29;20.37;;;4.47;;
71637;SDS011;59485;43.542;-5.676;2022-11-09T16:55:55;15.77;;;5.00;;
71637;SDS011;59485;43.542;-5.676;2022-11-09T16:58:21;18.90;;;4.50;;
71637;SDS011;59485;43.542;-5.676;2022-11-09T17:00:47;15.18;;;4.20;;
71637;SDS011;59485;43.542;-5.676;2022-11-09T17:03:14;15.80;;;4.17;;
71637;SDS011;59485;43.542;-5.676;2022-11-09T17:05:40;17.13;;;4.95;;